Time;durP1;ratioP1;P1;durP2;ratioP2;P2;SDS_P1;SDS_P2;PMS_P1;PMS_P2;Temp;Humidity;BMP_temperature;BMP_pressure;BME280_temperature;BME280_humidity;BME280_pressure;Samples;Min_cycle;Max_cycle;Signal;HPM_P1;HPM_P2
2022/02/06 00:00:04;;;;;;;6.45;0.70;;;27.00;91.20;;;;;;5065948;28;20055;-75
2022/02/06 00:02:35;;;;;;;5.93;1.25;;;26.90;90.70;;;;;;5060222;28;20025;-79
2022/02/06 00:05:03;;;;;;;6.88;1.38;;;26.40;91.80;;;;;;5055028;28;20070;-74
2022/02/06 00:07:31;;;;;;;5.03;0.60;;;25.90;93.30;;;;;;5063032;28;20403;-76
2022/02/06 00:09:58;;;;;;;5.53;0.65;;;25.70;93.10;;;;;;5058530;28;20071;-76
2022/02/06 00:12:27;;;;;;;2.10;0.60;;;25.70;92.60;;;;;;5062864;28;20031;-76
2022/02/06 00:14:55;;;;;;;5.63;0.77;;;26.30;92.20;;;;;;5055893;28;20033;-74
2022/02/06 00:17:22;;;;;;;5.32;0.70;;;26.90;91.50;;;;;;5058319;28;20211;-74
2022/02/06 00:19:49;;;;;;;3.92;0.75;;;27.30;90.90;;;;;;5053685;28;20057;-76
2022/02/06 00:22:28;;;;;;;5.10;0.80;;;27.10;87.70;;;;;;5057456;28;20120;-76
2022/02/06 00:25:19;;;;;;;4.80;0.50;;;26.90;86.50;;;;;;5067929;28;20051;-75
2022/02/06 00:27:57;;;;;;;7.65;1.23;;;26.70;86.60;;;;;;5063975;28;20029;-74
2022/02/06 00:30:42;;;;;;;1.30;0.50;;;26.70;88.40;;;;;;5065011;28;20426;-74
2022/02/06 00:41:15;;;;;;;4.20;1.10;;;27.40;90.00;;;;;;5067139;28;20048;-73
2022/02/06 00:43:43;;;;;;;;;;;27.70;90.30;;;;;;5071423;28;20040;-74
2022/02/06 00:46:13;;;;;;;6.55;0.70;;;28.20;87.30;;;;;;5059829;28;19965;-74
2022/02/06 00:48:43;;;;;;;3.88;0.98;;;27.70;85.70;;;;;;5073170;28;20361;-74
2022/02/06 00:51:25;;;;;;;4.53;1.13;;;27.00;88.90;;;;;;5069812;28;20048;-76
2022/02/06 00:53:53;;;;;;;7.13;1.35;;;26.20;91.80;;;;;;5065099;28;20029;-73
2022/02/06 00:56:21;;;;;;;6.45;1.38;;;24.90;94.90;;;;;;5070287;28;20570;-73
2022/02/06 00:58:48;;;;;;;4.20;0.93;;;24.00;97.80;;;;;;5071879;28;20119;-74
2022/02/06 01:01:15;;;;;;;5.20;0.90;;;23.60;99.60;;;;;;5070947;28;20024;-75
2022/02/06 01:03:43;;;;;;;2.30;1.13;;;23.40;99.20;;;;;;5059904;28;20078;-76
2022/02/06 01:06:10;;;;;;;8.25;1.15;;;23.60;99.50;;;;;;5062029;28;20369;-75
2022/02/06 01:08:37;;;;;;;7.03;1.25;;;24.00;98.10;;;;;;5069314;28;20086;-74
2022/02/06 01:11:09;;;;;;;6.90;1.25;;;24.30;97.40;;;;;;5072372;28;20024;-75
2022/02/06 01:13:49;;;;;;;7.10;1.33;;;24.70;96.60;;;;;;5071620;28;20078;-76
2022/02/06 01:16:22;;;;;;;5.68;1.75;;;25.20;96.60;;;;;;5053914;28;20099;-76
2022/02/06 01:18:57;;;;;;;5.90;1.55;;;25.30;96.10;;;;;;5056008;28;20031;-75
2022/02/06 01:21:38;;;;;;;5.03;1.33;;;24.90;98.00;;;;;;5063073;28;20028;-76
2022/02/06 01:24:20;;;;;;;4.55;0.70;;;24.20;98.10;;;;;;5056376;28;20744;-76
2022/02/06 01:26:56;;;;;;;4.60;0.50;;;24.10;98.00;;;;;;5062275;28;20111;-77
2022/02/06 01:29:32;;;;;;;;;;;24.60;95.80;;;;;;5070438;28;20040;-76
2022/02/06 01:34:38;;;;;;;5.03;0.85;;;24.80;95.40;;;;;;5071337;28;20107;-76
2022/02/06 01:37:13;;;;;;;5.07;1.80;;;25.00;96.10;;;;;;5069976;28;20052;-77
2022/02/06 01:39:55;;;;;;;10.10;2.55;;;25.40;95.90;;;;;;5070313;28;20448;-76
2022/02/06 01:42:31;;;;;;;7.90;1.20;;;25.60;95.30;;;;;;5064105;28;20074;-76
2022/02/06 01:45:23;;;;;;;5.35;1.40;;;25.90;94.30;;;;;;5070067;28;20479;-74
2022/02/06 02:02:03;;;;;;;;;;;26.40;93.10;;;;;;5055286;28;20371;-75
2022/02/06 02:05:04;;;;;;;6.00;0.95;;;25.30;94.80;;;;;;5058558;28;20014;-76
2022/02/06 02:07:41;;;;;;;5.13;0.88;;;24.40;97.50;;;;;;5054783;28;20036;-75
2022/02/06 02:18:45;;;;;;;9.38;1.10;;;22.90;99.90;;;;;;5063813;28;20054;-76
2022/02/06 02:26:52;;;;;;;11.32;2.25;;;23.80;99.90;;;;;;5053885;28;20020;-76
2022/02/06 02:45:50;;;;;;;4.40;0.73;;;23.80;99.90;;;;;;5057037;28;20059;-76
2022/02/06 02:48:19;;;;;;;3.33;1.27;;;23.80;99.90;;;;;;5069302;28;20501;-76
2022/02/06 02:50:55;;;;;;;4.28;0.68;;;23.50;99.90;;;;;;5070294;28;20017;-76
2022/02/06 03:01:12;;;;;;;4.03;0.63;;;24.80;99.90;;;;;;5059125;28;20145;-75
2022/02/06 03:03:41;;;;;;;4.68;1.33;;;25.60;99.90;;;;;;5085764;28;20037;-78
2022/02/06 03:06:10;;;;;;;8.13;0.80;;;26.30;99.90;;;;;;5063860;28;20040;-74
2022/02/06 03:08:40;;;;;;;5.07;0.80;;;26.90;99.90;;;;;;5068771;28;20032;-76
2022/02/06 03:11:09;;;;;;;2.72;0.70;;;27.40;99.90;;;;;;5050069;28;20102;-77
2022/02/06 03:18:56;;;;;;;6.05;2.30;;;26.20;97.40;;;;;;5058749;28;20041;-75
2022/02/06 03:21:27;;;;;;;9.30;1.40;;;25.60;96.80;;;;;;5057479;28;20510;-75
2022/02/06 03:23:57;;;;;;;4.20;0.70;;;25.70;97.20;;;;;;5060333;28;20123;-79
2022/02/06 03:26:26;;;;;;;3.83;0.75;;;26.00;96.60;;;;;;5067624;28;20093;-74
2022/02/06 03:28:54;;;;;;;4.00;0.90;;;26.00;95.70;;;;;;5063577;28;20068;-76
2022/02/06 03:31:23;;;;;;;1.67;0.40;;;25.70;95.40;;;;;;5066011;28;20051;-76
2022/02/06 03:33:51;;;;;;;7.72;0.90;;;25.80;95.20;;;;;;5068006;28;20033;-75
2022/02/06 03:36:21;;;;;;;7.15;1.85;;;26.50;95.80;;;;;;5067255;28;20032;-74
2022/02/06 03:38:51;;;;;;;5.68;1.00;;;26.20;94.50;;;;;;5065283;28;20025;-74
2022/02/06 03:41:19;;;;;;;7.63;1.35;;;25.90;95.50;;;;;;5052495;28;20088;-73
2022/02/06 03:43:56;;;;;;;7.68;2.55;;;25.90;94.90;;;;;;5067498;28;20028;-73
2022/02/06 03:48:53;;;;;;;5.15;0.70;;;25.50;95.50;;;;;;5066400;28;20059;-76
2022/02/06 03:51:41;;;;;;;6.57;0.68;;;25.40;95.30;;;;;;5054947;28;20016;-76
2022/02/06 03:54:10;;;;;;;4.93;0.93;;;25.00;95.30;;;;;;5049242;28;20033;-76
2022/02/06 03:56:40;;;;;;;9.05;1.75;;;24.60;97.30;;;;;;5054275;28;20039;-73
2022/02/06 03:59:08;;;;;;;5.45;0.75;;;25.00;98.90;;;;;;5071830;28;20020;-75
2022/02/06 04:01:35;;;;;;;3.88;0.47;;;24.90;97.40;;;;;;5061792;28;20036;-74
2022/02/06 04:04:02;;;;;;;4.93;0.57;;;24.60;97.80;;;;;;5069408;28;20024;-77
2022/02/06 04:06:30;;;;;;;2.63;1.27;;;24.30;97.90;;;;;;5058079;28;20036;-78
2022/02/06 04:08:58;;;;;;;2.75;0.40;;;24.20;98.60;;;;;;5072881;28;20048;-77
2022/02/06 04:11:46;;;;;;;7.45;1.10;;;24.80;99.30;;;;;;5059459;28;20375;-76
2022/02/06 04:14:31;;;;;;;1.80;0.65;;;25.50;97.30;;;;;;5065244;28;20036;-77
2022/02/06 04:17:07;;;;;;;6.85;1.13;;;25.80;96.70;;;;;;5058283;28;20029;-78
2022/02/06 04:19:35;;;;;;;3.35;0.50;;;25.50;96.60;;;;;;5065028;28;20093;-77
2022/02/06 04:22:02;;;;;;;3.92;0.65;;;24.70;99.20;;;;;;5069373;28;20312;-78
2022/02/06 04:24:30;;;;;;;3.42;0.63;;;23.90;99.90;;;;;;5070307;28;20029;-76
2022/02/06 04:26:57;;;;;;;1.98;0.55;;;23.30;99.90;;;;;;5058041;28;20032;-78
2022/02/06 04:29:24;;;;;;;4.30;0.60;;;22.90;99.90;;;;;;5071852;28;20025;-77
2022/02/06 04:31:51;;;;;;;3.80;1.08;;;22.70;99.90;;;;;;5065619;28;20037;-77
2022/02/06 04:34:24;;;;;;;6.45;0.70;;;22.70;99.90;;;;;;5070648;28;20493;-79
2022/02/06 04:37:43;;;;;;;3.83;0.50;;;23.20;99.90;;;;;;5064375;28;20049;-79
2022/02/06 05:15:07;;;;;;;4.63;1.42;;;24.10;99.30;;;;;;5066339;28;20059;-75
2022/02/06 05:18:09;;;;;;;6.78;1.20;;;24.50;98.60;;;;;;5064444;28;20036;-77
2022/02/06 05:20:58;;;;;;;4.15;0.98;;;25.10;98.60;;;;;;5069145;28;20408;-80
2022/02/06 05:28:54;;;;;;;4.65;1.27;;;25.30;96.30;;;;;;5069743;28;20033;-73
2022/02/06 05:34:07;;;;;;;5.57;1.60;;;25.00;95.80;;;;;;5071078;28;20096;-74
2022/02/06 05:36:34;;;;;;;6.25;0.80;;;25.10;96.80;;;;;;5061601;28;20028;-76
2022/02/06 05:39:02;;;;;;;4.60;0.80;;;25.10;98.00;;;;;;5064929;28;20055;-76
2022/02/06 05:41:30;;;;;;;3.88;0.95;;;25.00;97.10;;;;;;5052201;28;20349;-78
2022/02/06 05:43:57;;;;;;;5.10;0.80;;;24.70;97.30;;;;;;5071693;28;20117;-74
2022/02/06 05:46:24;;;;;;;4.10;0.60;;;24.60;97.50;;;;;;5065606;28;20112;-77
2022/02/06 05:48:52;;;;;;;3.13;1.45;;;24.60;98.00;;;;;;5071680;28;20120;-78
2022/02/06 05:51:19;;;;;;;4.18;0.80;;;24.90;98.00;;;;;;5070088;28;20025;-75
2022/02/06 05:53:47;;;;;;;7.18;1.10;;;25.10;97.50;;;;;;5059803;28;20028;-77
2022/02/06 05:56:17;;;;;;;8.00;0.50;;;25.10;97.90;;;;;;5061037;28;20083;-77
2022/02/06 05:58:45;;;;;;;3.08;0.45;;;25.00;97.90;;;;;;5060391;28;20032;-77
2022/02/06 06:01:12;;;;;;;4.65;0.80;;;25.00;97.90;;;;;;5070117;28;20042;-78
2022/02/06 06:03:39;;;;;;;3.30;0.57;;;24.90;97.50;;;;;;5067922;28;20462;-78
2022/02/06 06:06:07;;;;;;;5.88;1.27;;;24.60;98.10;;;;;;5064569;28;20040;-77
2022/02/06 06:08:34;;;;;;;2.97;1.05;;;24.30;98.10;;;;;;5059705;28;20060;-77
2022/02/06 06:11:01;;;;;;;2.42;0.82;;;24.20;98.60;;;;;;5060274;28;20020;-78
2022/02/06 06:13:28;;;;;;;4.30;0.60;;;24.10;98.50;;;;;;5058202;28;20037;-78
2022/02/06 06:15:56;;;;;;;4.45;1.60;;;24.00;98.70;;;;;;5063151;28;20459;-78
2022/02/06 06:18:24;;;;;;;6.75;1.17;;;24.10;99.40;;;;;;5059950;28;20091;-78
2022/02/06 06:20:53;;;;;;;4.80;0.63;;;24.40;99.50;;;;;;5055834;28;20053;-78
2022/02/06 06:23:24;;;;;;;3.92;0.57;;;24.70;99.20;;;;;;5065987;28;20063;-77
2022/02/06 06:25:52;;;;;;;6.93;0.70;;;25.20;98.80;;;;;;5053166;28;20520;-74
2022/02/06 06:28:20;;;;;;;6.25;0.70;;;25.30;98.40;;;;;;5056825;28;20037;-78
2022/02/06 06:30:47;;;;;;;7.03;1.35;;;25.10;97.70;;;;;;5050468;28;20345;-76
2022/02/06 06:33:15;;;;;;;5.22;1.23;;;24.80;98.40;;;;;;5066255;28;20593;-78
2022/02/06 06:35:45;;;;;;;8.18;1.35;;;24.40;99.90;;;;;;5064164;28;20037;-79
2022/02/06 06:38:13;;;;;;;6.53;2.17;;;23.80;99.90;;;;;;5058933;28;20094;-78
2022/02/06 06:40:40;;;;;;;6.13;1.20;;;23.20;99.90;;;;;;5065144;28;20071;-77
2022/02/06 06:43:07;;;;;;;6.93;0.95;;;22.70;99.90;;;;;;5065703;28;20578;-78
2022/02/06 06:45:35;;;;;;;2.13;0.95;;;22.20;99.90;;;;;;5059554;28;20433;-75
2022/02/06 06:48:03;;;;;;;5.78;0.57;;;21.90;99.90;;;;;;5066612;28;20024;-76
2022/02/06 06:50:34;;;;;;;2.47;0.40;;;21.80;99.90;;;;;;5070561;28;20036;-77
2022/02/06 06:53:07;;;;;;;6.15;1.15;;;21.80;99.90;;;;;;5064137;28;20033;-77
2022/02/06 06:55:37;;;;;;;4.38;0.60;;;21.50;99.90;;;;;;5051061;28;20040;-77
2022/02/06 06:58:18;;;;;;;4.72;0.70;;;21.40;99.90;;;;;;5064463;28;20428;-77
2022/02/06 07:03:15;;;;;;;3.67;1.08;;;21.50;99.90;;;;;;5057788;28;20040;-78
2022/02/06 07:05:42;;;;;;;5.47;0.85;;;21.60;99.90;;;;;;5069585;28;20021;-78
2022/02/06 07:08:10;;;;;;;5.70;0.50;;;21.70;99.90;;;;;;5052058;28;20017;-79
2022/02/06 07:10:37;;;;;;;3.97;0.45;;;21.80;99.90;;;;;;5064694;28;20582;-78
2022/02/06 07:13:04;;;;;;;4.25;0.98;;;21.90;99.90;;;;;;5053311;28;20036;-77
2022/02/06 07:15:32;;;;;;;7.28;0.90;;;21.90;99.90;;;;;;5048316;28;20033;-76
2022/02/06 07:17:59;;;;;;;2.72;0.90;;;21.70;99.90;;;;;;5050549;28;20547;-75
2022/02/06 07:20:29;;;;;;;6.03;1.17;;;21.60;99.90;;;;;;5052854;28;20563;-74
2022/02/06 07:22:57;;;;;;;5.10;1.17;;;21.60;99.90;;;;;;5064830;28;20029;-74
2022/02/06 07:25:26;;;;;;;3.13;0.43;;;21.60;99.90;;;;;;5054127;28;20048;-74
2022/02/06 07:27:55;;;;;;;3.10;0.63;;;21.60;99.90;;;;;;5062535;28;20086;-75
2022/02/06 07:30:22;;;;;;;1.88;1.00;;;21.70;99.90;;;;;;5054461;28;20360;-75
2022/02/06 07:32:50;;;;;;;3.58;0.35;;;21.70;99.90;;;;;;5057713;28;20032;-74
2022/02/06 07:35:17;;;;;;;3.40;0.50;;;21.90;99.90;;;;;;5055764;28;20028;-75
2022/02/06 07:37:55;;;;;;;6.82;0.60;;;22.10;99.90;;;;;;5052279;28;20029;-74
2022/02/06 07:40:23;;;;;;;6.40;0.85;;;22.10;99.90;;;;;;5061528;28;20036;-75
2022/02/06 07:42:51;;;;;;;5.25;1.45;;;21.90;99.90;;;;;;5063780;28;20043;-74
2022/02/06 07:45:20;;;;;;;3.38;0.60;;;21.60;99.90;;;;;;5069112;28;20036;-75
2022/02/06 07:47:48;;;;;;;2.53;0.47;;;21.50;99.90;;;;;;5066252;28;20059;-75
2022/02/06 07:50:16;;;;;;;4.25;0.40;;;21.40;99.90;;;;;;5067794;28;20055;-74
2022/02/06 07:52:45;;;;;;;2.63;0.50;;;21.30;99.90;;;;;;5061705;28;20119;-75
2022/02/06 07:55:12;;;;;;;3.58;0.50;;;21.10;99.90;;;;;;5055022;28;20387;-75
2022/02/06 07:57:40;;;;;;;4.65;0.60;;;21.00;99.90;;;;;;5064231;28;20106;-74
2022/02/06 08:00:10;;;;;;;3.40;0.75;;;20.80;99.90;;;;;;5053745;28;20386;-75
2022/02/06 08:02:38;;;;;;;2.40;0.50;;;20.70;99.90;;;;;;5066174;28;20037;-75
2022/02/06 08:05:05;;;;;;;5.93;0.70;;;20.70;99.90;;;;;;5060932;28;20356;-74
2022/02/06 08:07:33;;;;;;;3.95;0.70;;;20.70;99.90;;;;;;5053909;28;20021;-74
2022/02/06 08:10:02;;;;;;;2.50;0.45;;;20.70;99.90;;;;;;5049205;28;20032;-74
2022/02/06 08:12:33;;;;;;;4.82;0.38;;;20.60;99.90;;;;;;5056414;28;20033;-76
2022/02/06 08:15:03;;;;;;;4.43;1.98;;;20.50;99.90;;;;;;5053616;28;20037;-73
2022/02/06 08:17:39;;;;;;;2.63;0.77;;;20.40;99.90;;;;;;5059433;28;20127;-74
2022/02/06 08:20:08;;;;;;;6.20;1.23;;;20.40;99.90;;;;;;5054013;28;20029;-74
2022/02/06 08:22:36;;;;;;;3.70;0.95;;;20.30;99.90;;;;;;5061100;28;20418;-74
2022/02/06 08:25:05;;;;;;;3.95;0.82;;;20.30;99.90;;;;;;5056174;28;20103;-74
2022/02/06 08:27:33;;;;;;;3.33;0.45;;;20.20;99.90;;;;;;5058104;28;20094;-74
2022/02/06 08:30:00;;;;;;;4.38;1.05;;;20.20;99.90;;;;;;5058748;28;20025;-74
2022/02/06 08:32:28;;;;;;;3.00;0.80;;;20.20;99.90;;;;;;5059176;28;20532;-76
2022/02/06 08:34:57;;;;;;;1.63;0.47;;;20.20;99.90;;;;;;5053021;28;20063;-74
2022/02/06 08:37:24;;;;;;;3.10;0.30;;;20.20;99.90;;;;;;5058715;28;20041;-75
2022/02/06 08:39:52;;;;;;;1.60;0.40;;;20.10;99.90;;;;;;5055180;28;20033;-73
2022/02/06 08:42:20;;;;;;;1.92;0.55;;;20.00;99.90;;;;;;5054445;28;20383;-74
2022/02/06 08:44:48;;;;;;;3.70;0.75;;;20.00;99.90;;;;;;5058109;28;20024;-74
2022/02/06 08:47:17;;;;;;;4.82;1.15;;;19.90;99.90;;;;;;5057611;28;20678;-73
2022/02/06 08:49:46;;;;;;;0.85;0.30;;;19.90;99.90;;;;;;5071962;28;20345;-74
2022/02/06 08:52:17;;;;;;;2.40;0.57;;;19.70;99.90;;;;;;5069764;28;20025;-74
2022/02/06 08:54:45;;;;;;;2.88;0.50;;;19.60;99.90;;;;;;5060089;28;20021;-73
2022/02/06 08:57:25;;;;;;;3.80;0.25;;;19.50;99.90;;;;;;5065738;28;20068;-74
2022/02/06 08:59:55;;;;;;;2.67;0.38;;;19.40;99.90;;;;;;5072306;28;20420;-73
2022/02/06 09:02:22;;;;;;;2.53;0.40;;;19.40;99.90;;;;;;5062048;28;20112;-74
2022/02/06 09:04:50;;;;;;;0.40;0.30;;;19.40;99.90;;;;;;5072442;28;20336;-74
2022/02/06 09:07:19;;;;;;;1.40;0.30;;;19.40;99.90;;;;;;5056351;28;20020;-74
2022/02/06 09:09:49;;;;;;;1.90;0.60;;;19.30;99.90;;;;;;5052075;28;20024;-75
2022/02/06 09:12:17;;;;;;;1.77;0.70;;;19.30;99.90;;;;;;5058611;28;20475;-74
2022/02/06 09:14:47;;;;;;;2.53;0.30;;;19.30;99.90;;;;;;5066325;28;20020;-74
2022/02/06 09:17:15;;;;;;;2.03;0.40;;;19.30;99.90;;;;;;5061782;28;20401;-75
2022/02/06 09:19:42;;;;;;;3.47;0.40;;;19.20;99.90;;;;;;5059947;28;20051;-74
2022/02/06 09:22:10;;;;;;;1.92;0.70;;;19.20;99.90;;;;;;5068910;28;20041;-75
2022/02/06 09:24:38;;;;;;;2.88;0.40;;;19.30;99.90;;;;;;5070318;28;20245;-73
2022/02/06 09:27:07;;;;;;;6.75;0.82;;;19.40;99.90;;;;;;5066806;28;20092;-73
2022/02/06 09:29:40;;;;;;;2.00;0.75;;;19.40;99.90;;;;;;5063961;28;20085;-74
2022/02/06 09:37:10;;;;;;;5.60;0.93;;;19.10;99.90;;;;;;5064862;28;20051;-73
2022/02/06 09:39:41;;;;;;;3.88;0.82;;;18.90;99.90;;;;;;5067631;28;20021;-73
2022/02/06 09:42:09;;;;;;;3.67;0.88;;;18.80;99.90;;;;;;5056167;28;20045;-73
2022/02/06 09:44:37;;;;;;;1.63;0.40;;;18.80;99.90;;;;;;5051892;28;20083;-74
2022/02/06 09:47:05;;;;;;;2.13;0.60;;;18.70;99.90;;;;;;5053629;28;20041;-74
2022/02/06 09:49:33;;;;;;;5.72;0.65;;;18.70;99.90;;;;;;5065276;28;20025;-74
2022/02/06 09:52:01;;;;;;;3.92;0.60;;;18.70;99.90;;;;;;5061635;28;20046;-75
2022/02/06 09:54:29;;;;;;;4.93;0.35;;;18.70;99.90;;;;;;5066918;28;20101;-75
2022/02/06 09:57:00;;;;;;;4.53;0.95;;;18.80;99.90;;;;;;5058054;28;20116;-74
2022/02/06 09:59:35;;;;;;;2.67;0.43;;;18.80;99.90;;;;;;5065705;28;20028;-74
2022/02/06 10:02:03;;;;;;;3.30;0.88;;;18.90;99.90;;;;;;5061048;28;20065;-73
2022/02/06 10:04:33;;;;;;;2.63;0.50;;;18.80;99.90;;;;;;5056980;28;20032;-73
2022/02/06 10:07:08;;;;;;;4.68;1.02;;;18.80;99.90;;;;;;5058364;28;20037;-74
2022/02/06 10:09:49;;;;;;;6.88;1.35;;;18.70;99.90;;;;;;5062619;28;20082;-74
2022/02/06 10:12:20;;;;;;;3.75;0.38;;;18.80;99.90;;;;;;5056298;28;20024;-73
2022/02/06 10:14:48;;;;;;;3.58;1.23;;;18.80;99.90;;;;;;5064462;28;20119;-73
2022/02/06 10:17:17;;;;;;;2.83;0.47;;;18.70;99.90;;;;;;5065726;28;20406;-74
2022/02/06 10:20:15;;;;;;;4.38;0.75;;;18.70;99.90;;;;;;5050655;28;20029;-74
2022/02/06 10:22:52;;;;;;;2.92;0.40;;;18.70;99.90;;;;;;5053347;28;20387;-74
2022/02/06 10:25:20;;;;;;;3.25;0.40;;;18.70;99.90;;;;;;5065739;28;20391;-74
2022/02/06 10:27:48;;;;;;;3.78;0.98;;;18.70;99.90;;;;;;5061951;28;20123;-74
2022/02/06 10:30:42;;;;;;;3.83;0.60;;;18.60;99.90;;;;;;5061724;28;20399;-74
2022/02/06 10:33:24;;;;;;;2.50;0.47;;;18.70;99.90;;;;;;5051331;28;20045;-73
2022/02/06 10:35:57;;;;;;;3.60;1.02;;;18.80;99.90;;;;;;5064597;28;20054;-73
2022/02/06 10:38:26;;;;;;;5.55;0.55;;;18.80;99.90;;;;;;5063140;28;20360;-73
2022/02/06 10:41:13;;;;;;;3.45;0.85;;;18.80;99.90;;;;;;5051779;28;20067;-75
2022/02/06 10:43:57;;;;;;;2.40;0.80;;;18.80;99.90;;;;;;5064548;28;20104;-72
2022/02/06 10:46:26;;;;;;;2.15;0.60;;;18.70;99.90;;;;;;5063695;28;20172;-73
2022/02/06 10:48:57;;;;;;;2.22;0.55;;;18.80;99.90;;;;;;5052976;28;20124;-73
2022/02/06 10:51:36;;;;;;;7.10;0.80;;;18.80;99.90;;;;;;5055277;28;20021;-73
2022/02/06 10:54:06;;;;;;;2.28;0.70;;;18.80;99.90;;;;;;5055559;28;20580;-78
2022/02/06 10:56:36;;;;;;;6.72;1.10;;;18.90;99.90;;;;;;5051937;28;20491;-75
2022/02/06 10:59:08;;;;;;;6.40;1.17;;;18.80;99.90;;;;;;5067456;28;20387;-76
2022/02/06 11:01:41;;;;;;;2.13;0.50;;;18.70;99.90;;;;;;5059280;28;20029;-75
2022/02/06 11:04:18;;;;;;;1.75;0.35;;;18.60;99.90;;;;;;5056396;28;20036;-76
2022/02/06 11:06:53;;;;;;;6.45;0.85;;;18.60;99.90;;;;;;5050913;28;20040;-78
2022/02/06 11:09:31;;;;;;;3.13;0.63;;;18.60;99.90;;;;;;5061232;28;20093;-78
2022/02/06 11:12:04;;;;;;;5.28;0.77;;;18.50;99.90;;;;;;5059353;28;20021;-75
2022/02/06 11:14:34;;;;;;;4.22;0.45;;;18.50;99.90;;;;;;5066127;28;20032;-74
2022/02/06 11:17:14;;;;;;;3.90;0.47;;;18.50;99.90;;;;;;5064478;28;20024;-75
2022/02/06 11:19:57;;;;;;;4.78;0.80;;;18.40;99.90;;;;;;5059566;28;20111;-75
2022/02/06 11:22:25;;;;;;;0.98;0.40;;;18.40;99.90;;;;;;5051286;28;20036;-74
2022/02/06 11:24:53;;;;;;;1.30;0.47;;;18.40;99.90;;;;;;5057266;28;20031;-75
2022/02/06 11:27:24;;;;;;;5.60;0.55;;;18.40;99.90;;;;;;5061395;28;20024;-75
2022/02/06 11:29:53;;;;;;;2.00;0.95;;;18.40;99.90;;;;;;5065128;28;20059;-75
2022/02/06 11:32:20;;;;;;;1.95;0.50;;;18.30;99.90;;;;;;5062332;28;20485;-74
2022/02/06 11:34:47;;;;;;;3.25;0.63;;;18.30;99.90;;;;;;5048464;28;20037;-75
2022/02/06 11:43:50;;;;;;;2.92;0.30;;;18.10;99.90;;;;;;5049814;28;20068;-76
2022/02/06 11:46:20;;;;;;;2.50;0.88;;;18.10;99.90;;;;;;5054939;28;20140;-76
2022/02/06 11:48:49;;;;;;;5.60;0.70;;;18.10;99.90;;;;;;5054193;28;20827;-76
2022/02/06 11:51:18;;;;;;;4.85;0.50;;;18.00;99.90;;;;;;5057535;28;20021;-76
2022/02/06 11:53:46;;;;;;;5.68;0.50;;;18.00;99.90;;;;;;5052531;28;20029;-79
2022/02/06 11:56:35;;;;;;;3.15;1.35;;;17.90;99.90;;;;;;5048352;28;20025;-76
2022/02/06 11:59:20;;;;;;;6.43;1.38;;;17.90;99.90;;;;;;5067405;28;20139;-74
2022/02/06 12:01:47;;;;;;;5.90;0.95;;;17.80;99.90;;;;;;5067205;28;20100;-74
2022/02/06 12:04:27;;;;;;;3.08;0.70;;;17.80;99.90;;;;;;5065224;28;20417;-74
2022/02/06 12:06:59;;;;;;;4.95;0.77;;;17.70;99.90;;;;;;5067138;28;20449;-74
2022/02/06 12:09:30;;;;;;;3.22;0.73;;;17.70;99.90;;;;;;5068446;28;20100;-77
2022/02/06 12:12:06;;;;;;;2.47;0.70;;;17.70;99.90;;;;;;5054121;28;20041;-75
2022/02/06 12:14:43;;;;;;;4.00;0.35;;;17.70;99.90;;;;;;5068348;28;20466;-76
2022/02/06 12:17:22;;;;;;;1.23;0.45;;;17.70;99.90;;;;;;5057215;28;20095;-74
2022/02/06 12:20:10;;;;;;;2.97;0.50;;;17.70;99.90;;;;;;5054534;28;20112;-75
2022/02/06 12:22:46;;;;;;;4.63;0.45;;;17.70;99.90;;;;;;5058009;28;20033;-73
2022/02/06 12:25:37;;;;;;;3.72;0.82;;;17.70;99.90;;;;;;5066651;28;20032;-74
2022/02/06 12:28:18;;;;;;;5.85;1.10;;;17.80;99.90;;;;;;5068144;28;20032;-74
2022/02/06 12:30:47;;;;;;;5.20;0.45;;;17.80;99.90;;;;;;5077039;28;20025;-75
2022/02/06 12:33:44;;;;;;;6.18;1.65;;;17.80;99.90;;;;;;5074584;28;20711;-73
2022/02/06 12:39:14;;;;;;;5.93;0.65;;;17.80;99.90;;;;;;5072211;28;20074;-74
2022/02/06 12:41:46;;;;;;;5.55;1.20;;;17.80;99.90;;;;;;5063866;28;20115;-74
2022/02/06 12:44:17;;;;;;;1.88;0.68;;;17.80;99.90;;;;;;5058742;28;20016;-74
2022/02/06 12:46:51;;;;;;;3.33;0.43;;;17.70;99.90;;;;;;5056876;28;20025;-74
2022/02/06 12:49:27;;;;;;;6.00;1.30;;;17.60;99.90;;;;;;5069343;28;20501;-77
2022/02/06 12:51:57;;;;;;;;;;;17.50;99.90;;;;;;5059677;28;20119;-76
2022/02/06 12:54:26;;;;;;;7.10;1.30;;;17.50;99.90;;;;;;5061507;28;19916;-75
2022/02/06 12:56:58;;;;;;;7.65;2.15;;;17.50;99.90;;;;;;5062928;28;20102;-76
2022/02/06 12:59:31;;;;;;;3.38;1.00;;;17.50;99.90;;;;;;5071403;28;20547;-75
2022/02/06 13:02:00;;;;;;;11.27;1.52;;;17.40;99.90;;;;;;5069535;28;20107;-77
2022/02/06 13:04:31;;;;;;;5.90;0.50;;;17.40;99.90;;;;;;5069963;28;20387;-74
2022/02/06 13:07:04;;;;;;;3.63;0.50;;;17.40;99.90;;;;;;5063947;28;20078;-76
2022/02/06 13:09:38;;;;;;;1.88;0.50;;;17.30;99.90;;;;;;5054726;28;20577;-75
2022/02/06 13:28:35;;;;;;;3.40;0.70;;;17.00;99.90;;;;;;5067732;28;20059;-76
2022/02/06 13:31:20;;;;;;;8.52;1.23;;;17.00;99.90;;;;;;5061900;28;20407;-76
2022/02/06 13:36:35;;;;;;;5.97;0.65;;;17.00;99.90;;;;;;5053560;28;20025;-77
2022/02/06 13:39:12;;;;;;;2.22;0.90;;;17.00;99.90;;;;;;5068024;28;20086;-77
2022/02/06 13:41:40;;;;;;;2.38;0.40;;;16.90;99.90;;;;;;5067980;28;20052;-80
2022/02/06 13:44:19;;;;;;;4.85;0.65;;;16.90;99.90;;;;;;5067207;28;20501;-78
2022/02/06 13:46:47;;;;;;;3.00;0.57;;;16.90;99.90;;;;;;5059940;28;20043;-75
2022/02/06 13:49:14;;;;;;;7.05;1.35;;;16.90;99.90;;;;;;5070691;28;20052;-77
2022/02/06 13:51:46;;;;;;;2.33;0.75;;;16.80;99.90;;;;;;5066403;28;20506;-76
2022/02/06 13:54:15;;;;;;;7.05;1.33;;;16.80;99.90;;;;;;5053325;28;20047;-77
2022/02/06 13:56:43;;;;;;;9.18;0.82;;;16.80;99.90;;;;;;5058916;28;20082;-76
2022/02/06 13:59:18;;;;;;;5.10;1.13;;;16.80;99.90;;;;;;5062845;28;20039;-77
2022/02/06 14:01:55;;;;;;;6.55;0.93;;;16.80;99.90;;;;;;5054680;28;20047;-77
2022/02/06 14:04:26;;;;;;;2.72;1.05;;;16.80;99.90;;;;;;5065278;28;20098;-79
2022/02/06 14:07:06;;;;;;;2.55;0.75;;;16.70;99.90;;;;;;5068111;28;20206;-78
2022/02/06 14:10:22;;;;;;;5.57;0.70;;;16.80;99.90;;;;;;5070091;28;20028;-78
2022/02/06 14:12:21;;;;;;;2.92;0.68;;;16.80;99.90;;;;;;5054580;28;20080;-78
2022/02/06 14:14:59;;;;;;;7.07;1.15;;;16.80;99.90;;;;;;5051614;28;20363;-77
2022/02/06 14:17:28;;;;;;;3.33;0.63;;;16.80;99.90;;;;;;5063094;28;20098;-77
2022/02/06 14:19:58;;;;;;;0.73;0.40;;;16.80;99.90;;;;;;5069853;28;20037;-77
2022/02/06 14:22:37;;;;;;;1.63;1.00;;;16.90;99.90;;;;;;5065380;28;20032;-74
2022/02/06 14:25:07;;;;;;;5.53;0.70;;;17.00;99.90;;;;;;5050914;28;20036;-77
2022/02/06 14:27:38;;;;;;;7.50;0.68;;;17.00;99.90;;;;;;5055804;28;20099;-78
2022/02/06 14:30:10;;;;;;;6.13;1.15;;;17.00;99.90;;;;;;5070166;28;20364;-77
2022/02/06 14:33:05;;;;;;;5.30;0.98;;;17.10;99.90;;;;;;5060929;28;20017;-76
2022/02/06 14:36:04;;;;;;;3.65;0.70;;;17.10;99.90;;;;;;5058391;28;20112;-77
2022/02/06 14:44:08;;;;;;;7.63;0.95;;;17.30;99.90;;;;;;5062519;28;20028;-78
2022/02/06 14:46:37;;;;;;;4.13;0.63;;;17.30;99.90;;;;;;5067022;28;20086;-77
2022/02/06 14:49:07;;;;;;;3.58;0.90;;;17.30;99.90;;;;;;5069665;28;20428;-77
2022/02/06 14:51:42;;;;;;;4.50;0.50;;;17.30;99.90;;;;;;5067405;28;20036;-76
2022/02/06 14:54:10;;;;;;;3.45;0.93;;;17.30;99.90;;;;;;5063589;28;20384;-76
2022/02/06 14:56:42;;;;;;;6.40;1.13;;;17.40;99.90;;;;;;5062187;28;20024;-78
2022/02/06 14:59:10;;;;;;;5.97;1.00;;;17.40;99.90;;;;;;5067861;28;20059;-76
2022/02/06 15:01:37;;;;;;;6.43;1.75;;;17.40;99.90;;;;;;5063294;28;20074;-77
2022/02/06 15:04:05;;;;;;;3.65;0.90;;;17.40;99.90;;;;;;5050165;28;20421;-77
2022/02/06 15:06:32;;;;;;;4.57;0.90;;;17.40;99.90;;;;;;5061942;28;20021;-77
2022/02/06 15:09:00;;;;;;;2.10;0.60;;;17.30;99.90;;;;;;5070395;28;20016;-76
2022/02/06 15:11:27;;;;;;;4.38;1.10;;;17.30;99.90;;;;;;5068100;28;20037;-76
2022/02/06 15:13:54;;;;;;;3.65;0.98;;;17.40;99.90;;;;;;5054527;28;20033;-78
2022/02/06 15:16:26;;;;;;;4.90;1.13;;;17.30;99.90;;;;;;5060834;28;20163;-76
2022/02/06 15:19:11;;;;;;;9.27;1.33;;;17.40;99.90;;;;;;5067323;28;20031;-76
2022/02/06 15:21:39;;;;;;;8.48;1.17;;;17.50;99.90;;;;;;5066777;28;20139;-76
2022/02/06 15:24:08;;;;;;;7.35;0.98;;;17.50;99.90;;;;;;5081899;28;20055;-78
2022/02/06 15:26:35;;;;;;;5.93;1.08;;;17.50;99.90;;;;;;5055545;28;20480;-77
2022/02/06 15:29:03;;;;;;;6.78;1.02;;;17.60;99.90;;;;;;5067884;28;20093;-77
2022/02/06 15:31:30;;;;;;;11.13;1.15;;;17.60;99.90;;;;;;5067205;28;20391;-75
2022/02/06 15:33:59;;;;;;;3.88;1.17;;;17.70;99.90;;;;;;5061759;28;20502;-76
2022/02/06 15:36:28;;;;;;;4.05;1.23;;;17.70;99.90;;;;;;5064185;28;20029;-77
2022/02/06 15:38:55;;;;;;;4.75;0.73;;;17.70;99.90;;;;;;5067999;28;20069;-77
2022/02/06 15:41:24;;;;;;;4.50;0.77;;;17.70;99.90;;;;;;5066773;28;20048;-76
2022/02/06 15:43:51;;;;;;;2.53;0.73;;;17.70;99.90;;;;;;5069875;28;20056;-76
2022/02/06 15:46:19;;;;;;;3.58;1.00;;;17.80;99.90;;;;;;5058768;28;20368;-76